createdAt,value
2019-03-23T00:04:01.490Z,1023
2019-03-23T00:09:30.582Z,1023
2019-03-23T00:14:58.739Z,1023
2019-03-23T00:20:26.479Z,1023
2019-03-23T00:25:54.143Z,1023
2019-03-23T00:31:21.656Z,1023
2019-03-23T00:42:17.928Z,1023
2019-03-23T00:47:45.551Z,1023
2019-03-23T00:53:14.206Z,1023
2019-03-23T00:58:41.821Z,1023
2019-03-23T01:04:09.518Z,1023
2019-03-23T01:09:38.138Z,1023
2019-03-23T01:15:06.825Z,1023
2019-03-23T01:20:35.381Z,1023
2019-03-23T01:26:04.020Z,1023
2019-03-23T01:31:31.661Z,1023
2019-03-23T01:37:02.832Z,1022
2019-03-23T01:42:27.824Z,1022
2019-03-23T01:47:55.456Z,1023
2019-03-23T01:53:23.024Z,1023
2019-03-23T01:58:51.635Z,1023
2019-03-23T02:04:20.435Z,1023
2019-03-23T02:09:47.819Z,1023
2019-03-23T02:15:16.770Z,1023
2019-03-23T02:20:43.983Z,1022
2019-03-23T02:26:11.559Z,1022
2019-03-23T02:31:39.244Z,1022
2019-03-23T02:37:06.746Z,1022
2019-03-23T02:42:34.331Z,1022
2019-03-23T02:48:01.930Z,1022
2019-03-23T02:53:29.472Z,1022
2019-03-23T02:58:58.043Z,1022
2019-03-23T03:04:25.636Z,1022
2019-03-23T03:09:54.139Z,1022
2019-03-23T03:15:21.760Z,1022
2019-03-23T03:20:50.340Z,1022
2019-03-23T03:26:17.798Z,1022
2019-03-23T03:31:46.404Z,1023
2019-03-23T03:37:14.839Z,1023
2019-03-23T03:42:42.390Z,1023
2019-03-23T03:48:10.996Z,1023
2019-03-23T03:53:39.451Z,1023
2019-03-23T03:59:07.044Z,1023
2019-03-23T04:04:34.534Z,1023
2019-03-23T04:10:03.289Z,1023
2019-03-23T04:15:29.668Z,1023
2019-03-23T04:20:57.260Z,1022
2019-03-23T04:26:25.771Z,1022
2019-03-23T04:31:53.354Z,1022
2019-03-23T04:37:21.814Z,1022
2019-03-23T04:48:19.030Z,1023
2019-03-23T04:53:46.555Z,1023
2019-03-23T04:59:14.102Z,1023
2019-03-23T05:04:42.625Z,1023
2019-03-23T05:10:10.588Z,1023
2019-03-23T05:15:38.692Z,1023
2019-03-23T05:21:06.278Z,1023
2019-03-23T05:26:34.820Z,1023
2019-03-23T05:32:03.350Z,1023
2019-03-23T05:37:30.898Z,1023
2019-03-23T05:42:59.495Z,1023
2019-03-23T05:48:27.061Z,1023
2019-03-23T05:59:23.266Z,1023
2019-03-23T06:04:51.810Z,1023
2019-03-23T06:10:20.369Z,1023
2019-03-23T06:21:16.558Z,1023
2019-03-23T06:26:44.094Z,1023
2019-03-23T06:32:12.813Z,1023
2019-03-23T06:37:40.314Z,1023
2019-03-23T06:48:36.562Z,1023
2019-03-23T06:54:04.043Z,1023
2019-03-23T06:59:32.685Z,1023
2019-03-23T07:05:02.148Z,1023
2019-03-23T07:10:29.841Z,1023
2019-03-23T07:15:57.413Z,1023
2019-03-23T07:21:26.103Z,1023
2019-03-23T07:26:53.645Z,1023
2019-03-23T07:32:21.326Z,1023
2019-03-23T07:37:48.931Z,1023
2019-03-23T07:43:17.663Z,1023
2019-03-23T07:48:45.189Z,1024
2019-03-23T07:54:12.827Z,1024
2019-03-23T07:59:41.544Z,1024
2019-03-23T08:05:10.305Z,1024
2019-03-23T08:10:38.965Z,1024
2019-03-23T08:16:07.661Z,1024
2019-03-23T08:21:35.321Z,1024
2019-03-23T08:27:03.098Z,1024
2019-03-23T08:32:30.850Z,1024
2019-03-23T08:37:58.583Z,1024
2019-03-23T08:43:26.364Z,1024
2019-03-23T08:48:54.125Z,1024
2019-03-23T08:54:23.001Z,1024
2019-03-23T08:59:50.630Z,1024
2019-03-23T09:05:19.369Z,1024
2019-03-23T09:10:47.273Z,1024
2019-03-23T09:16:14.915Z,1024
2019-03-23T09:21:43.719Z,1024
2019-03-23T09:27:12.608Z,1024
2019-03-23T09:32:39.289Z,1024
2019-03-23T09:38:08.135Z,1024
2019-03-23T09:43:36.910Z,1024
2019-03-23T09:49:05.740Z,1024
2019-03-23T09:54:33.581Z,1024
2019-03-23T10:05:30.386Z,1025
2019-03-23T10:10:58.179Z,1025
2019-03-23T10:16:26.853Z,1025
2019-03-23T10:21:54.712Z,1025
2019-03-23T10:27:22.585Z,1025
2019-03-23T10:38:21.349Z,1025
2019-03-23T10:43:49.094Z,1025
2019-03-23T10:49:17.990Z,1025
2019-03-23T10:54:45.846Z,1025
2019-03-23T11:00:14.616Z,1025
2019-03-23T11:05:42.437Z,1025
2019-03-23T11:11:10.303Z,1025
2019-03-23T11:16:39.130Z,1025
2019-03-23T11:22:06.967Z,1025
2019-03-23T11:27:34.759Z,1025
2019-03-23T11:33:02.690Z,1025
2019-03-23T11:38:30.566Z,1025
2019-03-23T11:43:58.409Z,1025
2019-03-23T11:49:27.357Z,1025
2019-03-23T11:54:55.199Z,1025
2019-03-23T12:00:23.152Z,1025
2019-03-23T12:05:52.003Z,1025
2019-03-23T12:11:18.955Z,1025
2019-03-23T12:16:46.835Z,1026
2019-03-23T12:22:14.684Z,1026
2019-03-23T12:27:43.557Z,1026
2019-03-23T12:33:11.574Z,1025
2019-03-23T12:38:40.508Z,1026
2019-03-23T12:44:08.355Z,1026
2019-03-23T12:49:36.291Z,1026
2019-03-23T12:55:04.317Z,1026
2019-03-23T13:00:33.208Z,1026
2019-03-23T13:06:01.306Z,1026
2019-03-23T13:11:34.715Z,1026
2019-03-23T13:16:57.048Z,1026
2019-03-23T13:22:26.050Z,1026
2019-03-23T13:33:21.992Z,1026
2019-03-23T13:38:49.958Z,1026
2019-03-23T13:44:17.958Z,1026
2019-03-23T13:49:46.916Z,1026
2019-03-23T13:55:14.889Z,1026
2019-03-23T14:00:42.865Z,1026
2019-03-23T14:06:10.894Z,1026
2019-03-23T14:11:38.912Z,1026
2019-03-23T14:17:06.825Z,1026
2019-03-23T14:22:35.661Z,1026
2019-03-23T14:28:03.615Z,1026
2019-03-23T14:33:32.521Z,1026
2019-03-23T14:39:00.394Z,1026
2019-03-23T14:44:28.298Z,1026
2019-03-23T14:49:57.151Z,1026
2019-03-23T14:55:26.016Z,1026
2019-03-23T15:00:54.949Z,1026
2019-03-23T15:06:23.813Z,1026
2019-03-23T15:11:51.722Z,1026
2019-03-23T15:17:19.635Z,1026
2019-03-23T15:22:47.493Z,1026
2019-03-23T15:28:16.430Z,1026
2019-03-23T15:33:44.202Z,1027
2019-03-23T15:39:12.027Z,1027
2019-03-23T15:44:39.862Z,1027
2019-03-23T15:50:07.615Z,1027
2019-03-23T15:55:36.419Z,1027
2019-03-23T16:01:04.247Z,1027
2019-03-23T16:06:32.140Z,1027
2019-03-23T16:11:59.743Z,1027
2019-03-23T16:17:28.497Z,1027
2019-03-23T16:22:57.293Z,1027
2019-03-23T16:28:25.063Z,1027
2019-03-23T16:33:53.755Z,1027
2019-03-23T16:39:21.518Z,1027
2019-03-23T16:44:50.342Z,1027
2019-03-23T16:50:18.967Z,1027
2019-03-23T16:55:46.688Z,1027
2019-03-23T17:01:15.432Z,1027
2019-03-23T17:06:46.429Z,1027
2019-03-23T17:12:11.850Z,1027
2019-03-23T17:17:39.560Z,1027
2019-03-23T17:23:07.251Z,1027
2019-03-23T17:28:35.912Z,1027
2019-03-23T17:34:03.631Z,1027
2019-03-23T17:39:32.245Z,1027
2019-03-23T17:44:59.946Z,1027
2019-03-23T17:50:27.646Z,1027
2019-03-23T17:55:55.252Z,1028
2019-03-23T18:06:51.541Z,1028
2019-03-23T18:12:24.920Z,1028
2019-03-23T18:17:51.115Z,1028
2019-03-23T18:23:16.519Z,1028
2019-03-23T18:28:44.076Z,1028
2019-03-23T18:34:11.699Z,1028
2019-03-23T18:39:39.309Z,1028
2019-03-23T18:45:07.004Z,1028
2019-03-23T18:50:34.614Z,1028
2019-03-23T18:56:02.151Z,1028
2019-03-23T19:01:29.774Z,1028
2019-03-23T19:06:58.369Z,1028
2019-03-23T19:12:26.008Z,1028
2019-03-23T19:17:54.561Z,1028
2019-03-23T19:23:22.215Z,1028
2019-03-23T19:28:49.747Z,1028
2019-03-23T19:34:17.343Z,1028
2019-03-23T19:39:45.942Z,1028
2019-03-23T19:45:14.510Z,1028
2019-03-23T19:50:42.139Z,1028
2019-03-23T19:56:10.821Z,1028
2019-03-23T20:01:38.286Z,1028
2019-03-23T20:07:05.903Z,1028
2019-03-23T20:12:34.422Z,1028
2019-03-23T20:18:02.994Z,1028
2019-03-23T20:23:31.613Z,1028
2019-03-23T20:29:00.550Z,1028
2019-03-23T20:34:28.693Z,1028
2019-03-23T20:39:57.312Z,1028
2019-03-23T20:45:25.828Z,1028
2019-03-23T20:50:53.316Z,1028
2019-03-23T20:56:21.913Z,1028
2019-03-23T21:01:50.510Z,1029
2019-03-23T21:07:17.953Z,1029
2019-03-23T21:12:48.500Z,1029
2019-03-23T21:18:13.978Z,1029
2019-03-23T21:23:42.549Z,1029
2019-03-23T21:29:11.009Z,1029
2019-03-23T21:34:38.500Z,1029
2019-03-23T21:40:06.015Z,1029
2019-03-23T21:45:33.484Z,1029
2019-03-23T21:51:02.021Z,1029
2019-03-23T21:56:30.499Z,1029
2019-03-23T22:01:59.007Z,1029
2019-03-23T22:07:27.431Z,1029
2019-03-23T22:12:54.953Z,1028
2019-03-23T22:18:22.407Z,1028
2019-03-23T22:23:51.209Z,1028
2019-03-23T22:29:19.391Z,1029
2019-03-23T22:40:15.397Z,1029
2019-03-23T22:45:42.822Z,1028
2019-03-23T22:51:10.577Z,1028
2019-03-23T22:56:37.725Z,1028
2019-03-23T23:02:07.305Z,1028
2019-03-23T23:07:33.599Z,1028
2019-03-23T23:13:01.045Z,1028
2019-03-23T23:18:29.545Z,1028
2019-03-23T23:23:56.939Z,1028
2019-03-23T23:29:24.475Z,1028
2019-03-23T23:34:52.821Z,1028
2019-03-23T23:40:20.534Z,1028
2019-03-23T23:45:48.937Z,1028
2019-03-23T23:51:17.140Z,1028
2019-03-23T23:56:45.664Z,1028
